Time;durP1;ratioP1;P1;durP2;ratioP2;P2;SDS_P1;SDS_P2;PMS_P1;PMS_P2;Temp;Humidity;BMP_temperature;BMP_pressure;BME280_temperature;BME280_humidity;BME280_pressure;Samples;Min_cycle;Max_cycle;Signal;HPM_P1;HPM_P2
2021/12/26 00:02:06;;;;;;;;;;;-6.70;99.90;;;;;;4980679;28;19918;-87
2021/12/26 00:04:33;;;;;;;;;;;-6.70;99.90;;;;;;4975169;28;19964;-87
2021/12/26 00:06:58;;;;;;;;;;;-6.80;99.90;;;;;;4991485;28;20361;-86
2021/12/26 00:09:24;;;;;;;;;;;-6.80;99.90;;;;;;4976840;28;19965;-86
2021/12/26 00:11:49;;;;;;;;;;;-6.80;99.90;;;;;;4977767;28;19961;-86
2021/12/26 00:14:15;;;;;;;;;;;-6.70;99.90;;;;;;4976365;28;19914;-86
2021/12/26 00:16:43;;;;;;;;;;;-6.60;99.90;;;;;;4976041;28;19910;-86
2021/12/26 00:19:09;;;;;;;;;;;-6.50;99.90;;;;;;4981445;28;19913;-86
2021/12/26 00:21:35;;;;;;;;;;;-6.50;99.90;;;;;;4974615;28;20292;-86
2021/12/26 00:24:00;;;;;;;;;;;-6.50;99.90;;;;;;4989701;28;20701;-87
2021/12/26 00:26:26;;;;;;;;;;;-6.60;99.90;;;;;;4986727;28;19914;-86
2021/12/26 00:28:52;;;;;;;;;;;-6.70;99.90;;;;;;4995511;28;19914;-87
2021/12/26 00:31:17;;;;;;;;;;;-6.70;99.90;;;;;;4987858;28;19913;-86
2021/12/26 00:33:43;;;;;;;;;;;-6.80;99.90;;;;;;4974990;28;20313;-87
2021/12/26 00:36:09;;;;;;;;;;;-6.80;99.90;;;;;;4983469;28;19919;-86
2021/12/26 00:38:34;;;;;;;;;;;-6.90;99.90;;;;;;4993172;28;19917;-87
2021/12/26 00:41:00;;;;;;;;;;;-6.80;99.90;;;;;;4989948;28;19914;-87
2021/12/26 00:43:26;;;;;;;;;;;-6.90;99.90;;;;;;4974935;28;19946;-86
2021/12/26 00:45:52;;;;;;;;;;;-6.90;99.90;;;;;;4974608;28;19914;-86
2021/12/26 00:48:17;;;;;;;;;;;-7.00;99.90;;;;;;4974199;28;20353;-85
2021/12/26 00:50:43;;;;;;;;;;;-7.00;99.90;;;;;;4974497;28;19964;-86
2021/12/26 00:53:08;;;;;;;;;;;-7.00;99.90;;;;;;4979657;28;19921;-86
2021/12/26 00:55:34;;;;;;;;;;;-6.90;99.90;;;;;;4975919;28;19909;-86
2021/12/26 00:57:59;;;;;;;;;;;-6.90;99.90;;;;;;4995294;28;20030;-87
2021/12/26 01:00:28;;;;;;;;;;;-6.90;99.90;;;;;;4990593;28;19921;-86
2021/12/26 01:02:54;;;;;;;;;;;-7.00;99.90;;;;;;4974385;28;19914;-86
2021/12/26 01:05:21;;;;;;;;;;;-7.00;99.90;;;;;;4977952;28;20359;-86
2021/12/26 01:10:12;;;;;;;;;;;-7.00;99.90;;;;;;4972567;28;20425;-87
2021/12/26 01:12:39;;;;;;;;;;;-7.00;99.90;;;;;;4972536;28;19917;-86
2021/12/26 01:15:09;;;;;;;;;;;-7.00;99.90;;;;;;4971847;28;19914;-86
2021/12/26 01:17:35;;;;;;;;;;;-7.00;99.90;;;;;;4978253;28;19945;-86
2021/12/26 01:20:03;;;;;;;;;;;-7.00;99.90;;;;;;4973017;28;20249;-87
2021/12/26 01:22:29;;;;;;;;;;;-7.00;99.90;;;;;;4990944;28;20380;-87
2021/12/26 01:24:58;;;;;;;;;;;-7.00;99.90;;;;;;4999722;28;19985;-85
2021/12/26 01:27:24;;;;;;;;;;;-7.00;99.90;;;;;;4974518;28;19952;-86
2021/12/26 01:29:50;;;;;;;;;;;-7.00;99.90;;;;;;4973305;28;19918;-86
2021/12/26 01:32:16;;;;;;;;;;;-7.00;99.90;;;;;;4977714;28;20233;-86
2021/12/26 01:34:42;;;;;;;;;;;-7.00;99.90;;;;;;4986437;28;20052;-86
2021/12/26 01:37:07;;;;;;;;;;;-7.00;99.90;;;;;;4989309;28;20384;-86
2021/12/26 01:39:33;;;;;;;;;;;-7.00;99.90;;;;;;4991738;28;20280;-86
2021/12/26 01:42:02;;;;;;;;;;;-7.00;99.90;;;;;;4990569;28;19918;-86
2021/12/26 01:44:29;;;;;;;;;;;-7.00;99.90;;;;;;4992539;28;20086;-86
2021/12/26 01:46:54;;;;;;;;;;;-7.00;99.90;;;;;;4989715;28;19913;-87
2021/12/26 01:49:22;;;;;;;;;;;-7.00;99.90;;;;;;4992582;28;20237;-86
2021/12/26 01:51:49;;;;;;;;;;;-7.10;99.90;;;;;;4991930;28;20004;-87
2021/12/26 01:54:26;;;;;;;;;;;-7.10;99.90;;;;;;4992437;28;19909;-86
2021/12/26 01:56:52;;;;;;;;;;;-7.10;99.90;;;;;;5001200;28;20055;-86
2021/12/26 01:59:18;;;;;;;;;;;-7.00;99.90;;;;;;4992098;28;20004;-85
2021/12/26 02:01:43;;;;;;;;;;;-6.90;99.90;;;;;;4970788;28;19984;-87
2021/12/26 02:04:09;;;;;;;;;;;-7.00;99.90;;;;;;4974679;28;20485;-86
2021/12/26 02:06:34;;;;;;;;;;;-6.90;99.90;;;;;;4975553;28;20053;-86
2021/12/26 02:09:00;;;;;;;;;;;-6.90;99.90;;;;;;4973357;28;19910;-86
2021/12/26 02:11:25;;;;;;;;;;;-7.00;99.90;;;;;;4973263;28;20008;-85
2021/12/26 02:13:51;;;;;;;;;;;-7.00;99.90;;;;;;4974610;28;19918;-85
2021/12/26 02:16:16;;;;;;;;;;;-7.00;99.90;;;;;;4976462;28;20336;-85
2021/12/26 02:18:42;;;;;;;;;;;-7.00;99.90;;;;;;4982911;28;19925;-85
2021/12/26 02:23:47;;;;;;;;;;;-6.90;99.90;;;;;;4977365;28;20329;-85
2021/12/26 02:28:45;;;;;;;;;;;-7.00;99.90;;;;;;4979016;28;19914;-86
2021/12/26 02:31:11;;;;;;;;;;;-6.90;99.90;;;;;;4975362;28;20255;-87
2021/12/26 02:33:37;;;;;;;;;;;-7.00;99.90;;;;;;4975562;28;19916;-86
2021/12/26 02:36:03;;;;;;;;;;;-6.90;99.90;;;;;;4977252;28;19953;-86
2021/12/26 02:38:29;;;;;;;;;;;-6.90;99.90;;;;;;4976024;28;19910;-85
2021/12/26 02:40:56;;;;;;;;;;;-7.00;99.90;;;;;;4977925;28;19949;-86
2021/12/26 02:43:23;;;;;;;;;;;-7.00;99.90;;;;;;4980485;28;19914;-85
2021/12/26 02:45:49;;;;;;;;;;;-6.90;99.90;;;;;;4978761;28;19997;-85
2021/12/26 02:48:15;;;;;;;;;;;-6.90;99.90;;;;;;4979871;28;19925;-85
2021/12/26 02:50:41;;;;;;;;;;;-7.00;99.90;;;;;;4993000;28;19918;-86
2021/12/26 02:53:08;;;;;;;;;;;-7.10;99.90;;;;;;4975686;28;20342;-85
2021/12/26 02:55:34;;;;;;;;;;;-7.10;99.90;;;;;;4976802;28;20014;-85
2021/12/26 02:58:03;;;;;;;;;;;-7.20;99.90;;;;;;4977954;28;20423;-86
2021/12/26 03:00:30;;;;;;;;;;;-7.20;99.90;;;;;;4978654;28;19928;-86
2021/12/26 03:02:57;;;;;;;;;;;-7.20;99.90;;;;;;4976354;28;19936;-86
2021/12/26 03:05:28;;;;;;;;;;;-7.20;99.90;;;;;;4977669;28;20282;-86
2021/12/26 03:07:53;;;;;;;;;;;-7.20;99.90;;;;;;4990895;28;19917;-86
2021/12/26 03:10:24;;;;;;;;;;;-7.10;99.90;;;;;;4993756;28;19913;-86
2021/12/26 03:12:51;;;;;;;;;;;-7.20;99.90;;;;;;4995837;28;20448;-87
2021/12/26 03:15:17;;;;;;;;;;;-7.20;99.90;;;;;;4996231;28;20328;-86
2021/12/26 03:17:42;;;;;;;;;;;-7.10;99.90;;;;;;4992098;28;19922;-86
2021/12/26 03:20:09;;;;;;;;;;;-7.20;99.90;;;;;;5006775;28;19910;-87
2021/12/26 03:22:35;;;;;;;;;;;-7.30;99.90;;;;;;4991332;28;19917;-87
2021/12/26 03:25:00;;;;;;;;;;;-7.30;99.90;;;;;;4991474;28;19914;-87
2021/12/26 03:27:26;;;;;;;;;;;-7.30;99.90;;;;;;4994095;28;19920;-87
2021/12/26 03:29:51;;;;;;;;;;;-7.40;99.90;;;;;;4996115;28;19918;-86
2021/12/26 03:32:17;;;;;;;;;;;-7.40;99.90;;;;;;4996125;28;20060;-86
2021/12/26 03:34:49;;;;;;;;;;;-7.50;99.90;;;;;;4993362;28;19922;-87
2021/12/26 03:37:15;;;;;;;;;;;-7.50;99.90;;;;;;4985928;28;20150;-86
2021/12/26 03:39:41;;;;;;;;;;;-7.40;99.90;;;;;;4992503;28;20024;-87
2021/12/26 03:42:06;;;;;;;;;;;-7.40;99.90;;;;;;4994548;28;20032;-86
2021/12/26 03:44:32;;;;;;;;;;;-7.40;99.90;;;;;;4992906;28;19963;-87
2021/12/26 03:46:57;;;;;;;;;;;-7.40;99.90;;;;;;4995273;28;20407;-87
2021/12/26 03:49:23;;;;;;;;;;;-7.50;99.90;;;;;;4994889;28;19914;-87
2021/12/26 03:51:48;;;;;;;;;;;-7.40;99.90;;;;;;4995423;28;19913;-86
2021/12/26 03:54:14;;;;;;;;;;;-7.30;99.90;;;;;;4992491;28;20008;-86
2021/12/26 03:56:39;;;;;;;;;;;-7.30;99.90;;;;;;4993061;28;20373;-86
2021/12/26 03:59:05;;;;;;;;;;;-7.30;99.90;;;;;;4992667;28;20008;-87
2021/12/26 04:01:31;;;;;;;;;;;-7.30;99.90;;;;;;4994857;28;19937;-87
2021/12/26 04:03:56;;;;;;;;;;;-7.40;99.90;;;;;;5001241;28;19915;-87
2021/12/26 04:06:22;;;;;;;;;;;-7.40;99.90;;;;;;5007553;28;20139;-86
2021/12/26 04:08:47;;;;;;;;;;;-7.40;99.90;;;;;;4993021;28;19914;-87
2021/12/26 04:11:13;;;;;;;;;;;-7.50;99.90;;;;;;4994831;28;19956;-87
2021/12/26 04:13:39;;;;;;;;;;;-7.50;99.90;;;;;;4993664;28;19909;-87
2021/12/26 04:16:05;;;;;;;;;;;-7.50;99.90;;;;;;5000335;28;19924;-87
2021/12/26 04:18:30;;;;;;;;;;;-7.50;99.90;;;;;;5007665;28;19913;-87
2021/12/26 04:20:56;;;;;;;;;;;-7.50;99.90;;;;;;4992493;28;20008;-88
2021/12/26 04:23:21;;;;;;;;;;;-7.50;99.90;;;;;;4995224;28;19920;-87
2021/12/26 04:25:47;;;;;;;;;;;-7.50;99.90;;;;;;4992370;28;19936;-87
2021/12/26 04:28:17;;;;;;;;;;;-7.50;99.90;;;;;;4995184;28;19917;-86
2021/12/26 04:30:43;;;;;;;;;;;-7.50;99.90;;;;;;4991774;28;19965;-87
2021/12/26 04:33:08;;;;;;;;;;;-7.40;99.90;;;;;;4995103;28;20510;-87
2021/12/26 04:35:34;;;;;;;;;;;-7.40;99.90;;;;;;4993162;28;20000;-86
2021/12/26 04:38:00;;;;;;;;;;;-7.30;99.90;;;;;;4994674;28;19914;-86
2021/12/26 04:40:25;;;;;;;;;;;-7.30;99.90;;;;;;4996045;28;19925;-85
2021/12/26 04:42:51;;;;;;;;;;;-7.40;99.90;;;;;;4989277;28;19913;-87
2021/12/26 04:45:16;;;;;;;;;;;-7.50;99.90;;;;;;5003329;28;19926;-86
2021/12/26 04:47:43;;;;;;;;;;;-7.50;99.90;;;;;;4993598;28;20016;-86
2021/12/26 04:50:12;;;;;;;;;;;-7.50;99.90;;;;;;4991784;28;20358;-87
2021/12/26 04:52:39;;;;;;;;;;;-7.50;99.90;;;;;;4982018;28;19944;-87
2021/12/26 04:55:05;;;;;;;;;;;-7.50;99.90;;;;;;4971174;28;20424;-87
2021/12/26 04:57:31;;;;;;;;;;;-7.50;99.90;;;;;;4994004;28;19939;-86
2021/12/26 04:59:57;;;;;;;;;;;-7.50;99.90;;;;;;4991989;28;19909;-87
2021/12/26 05:02:22;;;;;;;;;;;-7.60;99.90;;;;;;4976274;28;19928;-86
2021/12/26 05:04:48;;;;;;;;;;;-7.50;99.90;;;;;;4988186;28;19949;-87
2021/12/26 05:07:14;;;;;;;;;;;-7.40;99.90;;;;;;4970013;28;19922;-87
2021/12/26 05:09:41;;;;;;;;;;;-7.30;99.90;;;;;;4986723;28;19918;-87
2021/12/26 05:12:07;;;;;;;;;;;-7.30;99.90;;;;;;4971429;28;19918;-87
2021/12/26 05:14:32;;;;;;;;;;;-7.30;99.90;;;;;;4976360;28;19910;-87
2021/12/26 05:16:58;;;;;;;;;;;-7.30;99.90;;;;;;4990344;28;20324;-87
2021/12/26 05:19:23;;;;;;;;;;;-7.30;99.90;;;;;;4973516;28;19914;-87
2021/12/26 05:21:49;;;;;;;;;;;-7.40;99.90;;;;;;4975416;28;19925;-87
2021/12/26 05:24:14;;;;;;;;;;;-7.40;99.90;;;;;;4979689;28;19925;-87
2021/12/26 05:26:40;;;;;;;;;;;-7.50;99.90;;;;;;4974672;28;20441;-87
2021/12/26 05:29:05;;;;;;;;;;;-7.40;99.90;;;;;;4973751;28;19937;-85
2021/12/26 05:31:31;;;;;;;;;;;-7.30;99.90;;;;;;4990867;28;19914;-87
2021/12/26 05:33:56;;;;;;;;;;;-7.30;99.90;;;;;;4993335;28;19913;-86
2021/12/26 05:36:21;;;;;;;;;;;-7.40;99.90;;;;;;4982503;28;19913;-86
2021/12/26 05:38:47;;;;;;;;;;;-7.40;99.90;;;;;;4975670;28;19910;-86
2021/12/26 05:41:13;;;;;;;;;;;-7.40;99.90;;;;;;4975368;28;19932;-86
2021/12/26 05:43:40;;;;;;;;;;;-7.30;99.90;;;;;;5005330;28;19941;-87
2021/12/26 05:46:06;;;;;;;;;;;-7.10;99.90;;;;;;4992427;28;19920;-86
2021/12/26 05:48:31;;;;;;;;;;;-7.20;99.90;;;;;;4992184;28;19909;-86
2021/12/26 05:50:57;;;;;;;;;;;-7.10;99.90;;;;;;4992769;28;19914;-87
2021/12/26 05:53:22;;;;;;;;;;;-7.30;99.90;;;;;;4990105;28;19913;-87
2021/12/26 05:55:47;;;;;;;;;;;-7.30;99.90;;;;;;4993206;28;20016;-87
2021/12/26 05:58:13;;;;;;;;;;;-7.30;99.90;;;;;;5006111;28;19924;-87
2021/12/26 06:00:38;;;;;;;;;;;-7.30;99.90;;;;;;4989549;28;19956;-87
2021/12/26 06:03:04;;;;;;;;;;;-7.40;99.90;;;;;;4991081;28;20634;-87
2021/12/26 06:05:29;;;;;;;;;;;-7.30;99.90;;;;;;4992267;28;19909;-87
2021/12/26 06:07:55;;;;;;;;;;;-7.40;99.90;;;;;;4992903;28;19921;-86
2021/12/26 06:10:20;;;;;;;;;;;-7.50;99.90;;;;;;4992442;28;19917;-87
2021/12/26 06:12:46;;;;;;;;;;;-7.50;99.90;;;;;;4992119;28;20201;-87
2021/12/26 06:15:13;;;;;;;;;;;-7.50;99.90;;;;;;5005003;28;19914;-87
2021/12/26 06:17:38;;;;;;;;;;;-7.60;99.90;;;;;;5005059;28;19910;-88
2021/12/26 06:20:05;;;;;;;;;;;-7.60;99.90;;;;;;5006547;28;19924;-88
2021/12/26 06:22:30;;;;;;;;;;;-7.50;99.90;;;;;;4989620;28;20502;-87
2021/12/26 06:24:55;;;;;;;;;;;-7.50;99.90;;;;;;4991598;28;19961;-87
2021/12/26 06:27:21;;;;;;;;;;;-7.50;99.90;;;;;;4993184;28;19921;-87
2021/12/26 06:29:47;;;;;;;;;;;-7.60;99.90;;;;;;5008370;28;19972;-87
2021/12/26 06:32:12;;;;;;;;;;;-7.60;99.90;;;;;;4990460;28;19928;-90
2021/12/26 06:34:38;;;;;;;;;;;-7.50;99.90;;;;;;5006659;28;19916;-92
2021/12/26 06:37:04;;;;;;;;;;;-7.50;99.90;;;;;;5005209;28;20022;-90
2021/12/26 06:39:29;;;;;;;;;;;-7.50;99.90;;;;;;4995072;28;19914;-89
2021/12/26 06:41:55;;;;;;;;;;;-7.60;99.90;;;;;;4991524;28;19949;-89
2021/12/26 06:44:21;;;;;;;;;;;-7.60;99.90;;;;;;4990532;28;20309;-89
2021/12/26 06:46:47;;;;;;;;;;;-7.60;99.90;;;;;;4978539;28;19920;-90
2021/12/26 06:49:17;;;;;;;;;;;-7.60;99.90;;;;;;4991427;28;20327;-89
2021/12/26 06:51:43;;;;;;;;;;;-7.60;99.90;;;;;;4989741;28;20487;-89
2021/12/26 06:54:10;;;;;;;;;;;-7.70;99.90;;;;;;4991155;28;19983;-89
2021/12/26 06:56:36;;;;;;;;;;;-7.60;99.90;;;;;;4978828;28;19914;-89
2021/12/26 06:59:01;;;;;;;;;;;-7.70;99.90;;;;;;4988324;28;19913;-92
2021/12/26 07:07:33;;;;;;;;;;;-7.50;99.90;;;;;;4867014;29;19927;-93
2021/12/26 07:13:03;;;;;;;;;;;-7.60;99.90;;;;;;4998387;28;20478;-91
2021/12/26 07:18:38;;;;;;;;;;;-7.50;99.90;;;;;;4955956;28;19917;-93
2021/12/26 07:24:08;;;;;;;;;;;-7.40;99.90;;;;;;4959000;28;19917;-92
2021/12/26 07:26:39;;;;;;;;;;;-7.40;99.90;;;;;;4939824;28;19932;-91
2021/12/26 07:29:25;;;;;;;;;;;-7.40;99.90;;;;;;4912764;28;20386;-92
2021/12/26 07:32:05;;;;;;;;;;;-7.40;99.90;;;;;;4891648;28;20040;-92
2021/12/26 07:34:40;;;;;;;;;;;-7.50;99.90;;;;;;4938701;28;19917;-92
2021/12/26 07:37:51;;;;;;;;;;;;;;;;;;;;;
2021/12/26 07:40:19;;;;;;;;;;;-7.50;99.90;;;;;;4959512;28;21587;-91
2021/12/26 07:42:53;;;;;;;;;;;-7.50;99.90;;;;;;4964264;28;19968;-90
2021/12/26 07:45:19;;;;;;;;;;;-7.40;99.90;;;;;;4984875;28;19996;-91
2021/12/26 07:47:56;;;;;;;;;;;-7.40;99.90;;;;;;4955701;28;20361;-91
2021/12/26 07:50:21;;;;;;;;;;;-7.40;99.90;;;;;;4958609;28;19914;-90
2021/12/26 07:52:48;;;;;;;;;;;-7.20;99.90;;;;;;4990120;28;20056;-90
2021/12/26 07:55:14;;;;;;;;;;;-7.10;99.90;;;;;;4994740;28;19920;-87
2021/12/26 07:58:08;;;;;;;;;;;-7.00;99.90;;;;;;4985237;28;19913;-91
2021/12/26 08:00:34;;;;;;;;;;;-7.00;99.90;;;;;;4988734;28;20000;-88
2021/12/26 08:02:59;;;;;;;;;;;-6.90;99.90;;;;;;4992168;28;20377;-89
2021/12/26 08:18:09;;;;;;;;;;;-6.80;99.90;;;;;;4986574;28;19971;-92
2021/12/26 08:20:40;;;;;;;;;;;-6.60;99.90;;;;;;5008947;28;19925;-90
2021/12/26 08:23:06;;;;;;;;;;;-6.60;99.90;;;;;;5009406;28;20003;-89
2021/12/26 08:25:31;;;;;;;;;;;-6.60;99.90;;;;;;5016081;28;20412;-89
2021/12/26 08:27:57;;;;;;;;;;;-6.50;99.90;;;;;;5018098;28;19947;-89
2021/12/26 08:30:23;;;;;;;;;;;-6.50;99.90;;;;;;5018072;28;19909;-89
2021/12/26 08:32:53;;;;;;;;;;;-6.60;99.90;;;;;;5025952;28;19908;-88
2021/12/26 08:35:29;;;;;;;;;;;-6.50;99.90;;;;;;5009854;28;19913;-89
2021/12/26 08:37:55;;;;;;;;;;;-6.50;99.90;;;;;;4962272;28;20035;-89
2021/12/26 08:40:21;;;;;;;;;;;-6.50;99.90;;;;;;5008449;28;20364;-88
2021/12/26 08:43:04;;;;;;;;;;;-6.50;99.90;;;;;;5020404;28;19912;-89
2021/12/26 09:13:41;;;;;;;;;;;-5.80;99.90;;;;;;4716275;30;19960;-81
2021/12/26 09:16:06;;;;;;;;;;;-5.80;99.90;;;;;;4754438;29;19925;-82
2021/12/26 09:18:33;;;;;;;;;;;-5.70;99.90;;;;;;4848338;29;19919;-81
2021/12/26 09:20:58;;;;;;;;;;;-5.70;99.90;;;;;;4884533;29;19923;-82
2021/12/26 09:23:24;;;;;;;;;;;-5.60;99.90;;;;;;4873405;29;20316;-81
2021/12/26 09:25:49;;;;;;;;;;;-5.50;99.90;;;;;;4894732;29;19982;-82
2021/12/26 09:28:15;;;;;;;;;;;-5.40;99.90;;;;;;4897955;29;19911;-85
2021/12/26 09:30:41;;;;;;;;;;;-5.30;99.90;;;;;;4910247;28;20294;-85
2021/12/26 09:33:06;;;;;;;;;;;-5.30;99.90;;;;;;4928850;28;19910;-85
2021/12/26 09:35:32;;;;;;;;;;;-5.30;99.90;;;;;;4947683;28;19972;-86
2021/12/26 09:37:57;;;;;;;;;;;-4.80;99.90;;;;;;4950206;28;19914;-86
2021/12/26 09:40:23;;;;;;;;;;;-4.80;99.90;;;;;;4944165;28;19925;-86
2021/12/26 09:42:52;;;;;;;;;;;-4.50;99.90;;;;;;4980806;28;19920;-86
2021/12/26 09:45:18;;;;;;;;;;;-4.60;99.90;;;;;;5047537;28;19912;-85
2021/12/26 09:47:45;;;;;;;;;;;-4.60;99.90;;;;;;5041274;28;19923;-86
2021/12/26 09:50:11;;;;;;;;;;;-4.50;99.90;;;;;;5035302;28;19919;-84
2021/12/26 09:52:40;;;;;;;;;;;-4.50;99.90;;;;;;5046945;28;20304;-85
2021/12/26 09:55:09;;;;;;;;;;;-4.50;99.90;;;;;;5034804;28;20584;-84
2021/12/26 09:57:35;;;;;;;;;;;-4.30;99.90;;;;;;5034953;28;20368;-85
2021/12/26 10:00:03;;;;;;;;;;;-4.20;99.90;;;;;;5012269;28;19960;-86
2021/12/26 10:02:30;;;;;;;;;;;-4.20;99.90;;;;;;5022557;28;19921;-85
2021/12/26 10:04:58;;;;;;;;;;;-4.10;99.90;;;;;;5042181;28;20360;-86
2021/12/26 10:07:27;;;;;;;;;;;-4.00;99.90;;;;;;5034195;28;20427;-85
2021/12/26 10:09:53;;;;;;;;;;;-3.90;99.90;;;;;;5040737;28;19909;-83
2021/12/26 10:12:22;;;;;;;;;;;-3.80;99.90;;;;;;5024814;28;20126;-82
2021/12/26 10:14:51;;;;;;;;;;;-3.70;99.90;;;;;;5056222;28;20349;-83
2021/12/26 10:17:20;;;;;;;;;;;-3.50;99.90;;;;;;5067476;28;19912;-86
2021/12/26 10:19:47;;;;;;;;;;;-3.50;99.90;;;;;;5060082;28;19934;-90
2021/12/26 10:22:37;;;;;;;;;;;-3.40;99.90;;;;;;5049244;28;19974;-85
2021/12/26 10:25:11;;;;;;;;;;;-3.50;99.90;;;;;;5025590;28;20319;-85
2021/12/26 10:27:37;;;;;;;;;;;-3.50;99.90;;;;;;5043199;28;19954;-85
2021/12/26 10:30:04;;;;;;;;;;;-3.40;99.90;;;;;;5056184;28;19986;-84
2021/12/26 10:32:36;;;;;;;;;;;-3.20;99.90;;;;;;5057725;28;19916;-85
2021/12/26 10:35:06;;;;;;;;;;;-3.00;99.90;;;;;;5060224;28;19912;-83
2021/12/26 10:37:35;;;;;;;;;;;-2.80;99.90;;;;;;5053075;28;19916;-82
2021/12/26 10:40:03;;;;;;;;;;;-2.50;99.90;;;;;;5059769;28;19912;-85
2021/12/26 10:42:30;;;;;;;;;;;-2.30;99.90;;;;;;5053761;28;19998;-86
2021/12/26 10:44:58;;;;;;;;;;;-2.00;99.90;;;;;;5057951;28;19916;-83
2021/12/26 10:47:28;;;;;;;;;;;-1.50;99.90;;;;;;5047356;28;19908;-84
2021/12/26 10:49:56;;;;;;;;;;;-1.10;99.90;;;;;;5072397;28;19908;-85
2021/12/26 10:52:23;;;;;;;;;;;-0.80;99.90;;;;;;5053541;28;19984;-84
2021/12/26 10:54:51;;;;;;;;;;;-0.80;99.90;;;;;;5058049;28;19985;-84
2021/12/26 10:57:19;;;;;;;;;;;-1.00;99.90;;;;;;5045514;28;19916;-84
2021/12/26 10:59:46;;;;;;;;;;;-0.90;99.90;;;;;;5057940;28;19966;-86
2021/12/26 11:02:21;;;;;;;;;;;-0.20;99.90;;;;;;5059356;28;19920;-85
2021/12/26 11:04:53;;;;;;;;;;;0.30;99.90;;;;;;5048579;28;19947;-84
2021/12/26 11:07:20;;;;;;;;;;;0.10;99.90;;;;;;5056810;28;20563;-84
2021/12/26 11:09:45;;;;;;;;;;;-0.40;99.90;;;;;;5055076;28;21019;-84
2021/12/26 11:12:11;;;;;;;;;;;-0.70;99.90;;;;;;5062780;28;19938;-85
2021/12/26 11:14:55;;;;;;;;;;;-0.90;99.90;;;;;;5064972;28;19920;-84
2021/12/26 11:17:31;;;;;;;;;;;-1.00;99.90;;;;;;5054881;28;19917;-84
2021/12/26 11:19:56;;;;;;;;;;;-1.00;99.90;;;;;;5055372;28;19924;-85
2021/12/26 11:22:23;;;;;;;;;;;-0.90;99.90;;;;;;5056685;28;19915;-84
2021/12/26 11:24:49;;;;;;;;;;;-0.70;99.90;;;;;;5056285;28;19913;-85
2021/12/26 11:27:15;;;;;;;;;;;-0.20;99.90;;;;;;5056433;28;19928;-82
2021/12/26 11:29:43;;;;;;;;;;;-0.10;99.90;;;;;;5055872;28;19917;-82
2021/12/26 11:32:09;;;;;;;;;;;-0.20;99.90;;;;;;5071851;28;20382;-82
2021/12/26 11:34:34;;;;;;;;;;;-0.50;99.90;;;;;;5073753;28;19958;-82
2021/12/26 11:37:00;;;;;;;;;;;-0.70;99.90;;;;;;5032399;28;19950;-82
2021/12/26 11:39:26;;;;;;;;;;;-0.60;99.90;;;;;;5053026;28;19916;-82
2021/12/26 11:41:55;;;;;;;;;;;-0.50;99.90;;;;;;5035394;28;19969;-82
2021/12/26 11:44:47;;;;;;;;;;;0.00;99.90;;;;;;5036801;28;19916;-81
2021/12/26 11:47:15;;;;;;;;;;;0.40;99.90;;;;;;5014887;28;19919;-82
2021/12/26 11:49:43;;;;;;;;;;;1.30;99.60;;;;;;5041740;28;19928;-82
2021/12/26 11:52:24;;;;;;;;;;;1.60;96.10;;;;;;5038130;28;19916;-82
2021/12/26 11:54:55;;;;;;;;;;;1.20;95.70;;;;;;5050224;28;19908;-83
2021/12/26 11:57:21;;;;;;;;;;;0.30;98.30;;;;;;5050449;28;19951;-82
2021/12/26 11:59:58;;;;;;;;;;;0.20;99.90;;;;;;5050776;28;20372;-80
2021/12/26 12:02:36;;;;;;;;;;;-0.10;99.90;;;;;;5037721;28;19916;-81
2021/12/26 12:05:11;;;;;;;;;;;-0.20;99.90;;;;;;5055752;28;19915;-81
2021/12/26 12:07:43;;;;;;;;;;;0.20;99.90;;;;;;5036697;28;20406;-80
2021/12/26 12:10:27;;;;;;;;;;;0.80;97.90;;;;;;5049799;28;19917;-80
2021/12/26 12:12:53;;;;;;;;;;;1.50;95.80;;;;;;5032802;28;19966;-83
2021/12/26 12:15:38;;;;;;;;;;;1.70;93.20;;;;;;5039997;28;19924;-81
2021/12/26 12:18:27;;;;;;;;;;;1.90;94.50;;;;;;5031660;28;20054;-81
2021/12/26 12:21:11;;;;;;;;;;;1.50;94.10;;;;;;5033304;28;19928;-82
2021/12/26 12:23:55;;;;;;;;;;;1.50;93.80;;;;;;5046443;28;19962;-81
2021/12/26 12:26:39;;;;;;;;;;;1.60;94.70;;;;;;5030754;28;19917;-81
2021/12/26 12:29:08;;;;;;;;;;;1.60;94.00;;;;;;5041557;28;19919;-81
2021/12/26 12:31:33;;;;;;;;;;;1.10;95.20;;;;;;5046426;28;20503;-81
2021/12/26 12:34:03;;;;;;;;;;;1.10;95.40;;;;;;5032430;28;19936;-80
2021/12/26 12:36:31;;;;;;;;;;;1.70;94.10;;;;;;5030612;28;20377;-81
2021/12/26 12:39:08;;;;;;;;;;;1.70;95.20;;;;;;5039765;28;20432;-80
2021/12/26 12:41:39;;;;;;;;;;;1.10;94.20;;;;;;5030613;28;19925;-81
2021/12/26 12:44:07;;;;;;;;;;;0.50;95.20;;;;;;5031015;28;20004;-81
2021/12/26 12:46:51;;;;;;;;;;;0.10;99.90;;;;;;5032497;28;19913;-81
2021/12/26 12:49:17;;;;;;;;;;;0.20;99.90;;;;;;5048512;28;20348;-81
2021/12/26 12:51:46;;;;;;;;;;;0.00;99.90;;;;;;5032506;28;19916;-81
2021/12/26 12:54:23;;;;;;;;;;;-0.20;99.90;;;;;;5036288;28;19909;-81
2021/12/26 12:56:49;;;;;;;;;;;-0.40;99.90;;;;;;5032026;28;20419;-81
2021/12/26 12:59:21;;;;;;;;;;;-0.60;99.90;;;;;;5031209;28;19917;-80
2021/12/26 13:01:54;;;;;;;;;;;-0.70;99.90;;;;;;5032623;28;19920;-81
2021/12/26 13:04:21;;;;;;;;;;;-0.90;99.90;;;;;;5031006;28;20608;-80
2021/12/26 13:06:57;;;;;;;;;;;-1.00;99.90;;;;;;5028669;28;19920;-81
2021/12/26 13:09:23;;;;;;;;;;;-1.00;99.90;;;;;;5035739;28;19917;-81
2021/12/26 13:11:50;;;;;;;;;;;-1.10;99.90;;;;;;5033232;28;19991;-81
2021/12/26 13:14:33;;;;;;;;;;;-1.10;99.90;;;;;;5033614;28;19928;-81
2021/12/26 13:16:59;;;;;;;;;;;-1.20;99.90;;;;;;5048699;28;19917;-81
2021/12/26 13:19:24;;;;;;;;;;;-1.20;99.90;;;;;;5036373;28;20268;-82
2021/12/26 13:21:54;;;;;;;;;;;-1.20;99.90;;;;;;5031269;28;19970;-80
2021/12/26 13:24:26;;;;;;;;;;;-1.20;99.90;;;;;;5043141;28;19945;-81
2021/12/26 13:26:52;;;;;;;;;;;-1.20;99.90;;;;;;5032964;28;20459;-81
2021/12/26 13:29:17;;;;;;;;;;;-1.30;99.90;;;;;;5034749;28;19919;-81
2021/12/26 13:31:43;;;;;;;;;;;-1.30;99.90;;;;;;5033533;28;20358;-81
2021/12/26 13:34:08;;;;;;;;;;;-1.30;99.90;;;;;;5035323;28;19936;-82
2021/12/26 13:36:34;;;;;;;;;;;-1.30;99.90;;;;;;5035822;28;20480;-82
2021/12/26 13:39:00;;;;;;;;;;;-1.20;99.90;;;;;;5050731;28;20344;-82
2021/12/26 13:41:28;;;;;;;;;;;-1.30;99.90;;;;;;5033799;28;19927;-82
2021/12/26 13:43:56;;;;;;;;;;;-1.30;99.90;;;;;;5032618;28;19955;-81
2021/12/26 13:46:22;;;;;;;;;;;-1.30;99.90;;;;;;5035167;28;20007;-81
2021/12/26 13:48:52;;;;;;;;;;;-1.40;99.90;;;;;;5050012;28;20335;-81
2021/12/26 13:51:34;;;;;;;;;;;-1.40;99.90;;;;;;5034215;28;20337;-81
2021/12/26 13:54:08;;;;;;;;;;;-1.40;99.90;;;;;;5037312;28;19916;-82
2021/12/26 13:56:43;;;;;;;;;;;-1.50;99.90;;;;;;5051178;28;20438;-81
2021/12/26 13:59:09;;;;;;;;;;;-1.50;99.90;;;;;;5050987;28;20019;-81
2021/12/26 14:01:34;;;;;;;;;;;-1.50;99.90;;;;;;5036114;28;19920;-81
2021/12/26 14:04:00;;;;;;;;;;;-1.50;99.90;;;;;;5036068;28;20642;-82
2021/12/26 14:06:27;;;;;;;;;;;-1.50;99.90;;;;;;5034537;28;19913;-82
2021/12/26 14:08:57;;;;;;;;;;;-1.60;99.90;;;;;;5035894;28;20426;-81
2021/12/26 14:11:23;;;;;;;;;;;-1.60;99.90;;;;;;5050949;28;20019;-82
2021/12/26 14:13:51;;;;;;;;;;;-1.70;99.90;;;;;;5034127;28;19922;-81
2021/12/26 14:16:24;;;;;;;;;;;-1.70;99.90;;;;;;5036167;28;19946;-81
2021/12/26 14:18:50;;;;;;;;;;;-1.70;99.90;;;;;;5053306;28;19946;-82
2021/12/26 14:21:18;;;;;;;;;;;-1.70;99.90;;;;;;5033786;28;19928;-82
2021/12/26 14:23:45;;;;;;;;;;;-1.70;99.90;;;;;;5055774;28;20022;-81
2021/12/26 14:26:13;;;;;;;;;;;-1.70;99.90;;;;;;5056328;28;19991;-81
2021/12/26 14:28:39;;;;;;;;;;;-1.80;99.90;;;;;;5055310;28;20052;-81
2021/12/26 14:31:05;;;;;;;;;;;-1.80;99.90;;;;;;5037809;28;19913;-82
2021/12/26 14:33:43;;;;;;;;;;;-1.80;99.90;;;;;;5038027;28;19958;-81
2021/12/26 14:36:08;;;;;;;;;;;-1.90;99.90;;;;;;5052211;28;19962;-82
2021/12/26 14:38:35;;;;;;;;;;;-1.90;99.90;;;;;;5053551;28;19931;-81
2021/12/26 14:41:05;;;;;;;;;;;-1.90;99.90;;;;;;5038926;28;19998;-82
2021/12/26 14:43:31;;;;;;;;;;;-2.00;99.90;;;;;;5034082;28;19919;-81
2021/12/26 14:45:58;;;;;;;;;;;-1.90;99.90;;;;;;5052877;28;19913;-81
2021/12/26 14:48:39;;;;;;;;;;;-1.90;99.90;;;;;;5044911;28;20232;-81
2021/12/26 14:51:09;;;;;;;;;;;-1.90;99.90;;;;;;5041716;28;19924;-83
2021/12/26 14:53:35;;;;;;;;;;;-2.00;99.90;;;;;;5053322;28;20136;-81
2021/12/26 14:56:01;;;;;;;;;;;-2.10;99.90;;;;;;5052842;28;20368;-81
2021/12/26 14:58:37;;;;;;;;;;;-2.10;99.90;;;;;;5038120;28;19919;-82
2021/12/26 15:01:03;;;;;;;;;;;-2.10;99.90;;;;;;5054030;28;19917;-81
2021/12/26 15:03:31;;;;;;;;;;;-2.20;99.90;;;;;;5037013;28;19913;-81
2021/12/26 15:05:58;;;;;;;;;;;-2.20;99.90;;;;;;5036288;28;19916;-81
2021/12/26 15:08:24;;;;;;;;;;;-2.20;99.90;;;;;;5038849;28;19912;-83
2021/12/26 15:10:49;;;;;;;;;;;-2.30;99.90;;;;;;5054118;28;20977;-82
2021/12/26 15:13:16;;;;;;;;;;;-2.30;99.90;;;;;;5037036;28;19966;-81
2021/12/26 15:15:49;;;;;;;;;;;-2.40;99.90;;;;;;5036988;28;19974;-81
2021/12/26 15:18:21;;;;;;;;;;;-2.40;99.90;;;;;;5053153;28;19916;-81
2021/12/26 15:20:47;;;;;;;;;;;-2.40;99.90;;;;;;5038701;28;20765;-82
2021/12/26 15:23:26;;;;;;;;;;;-2.40;99.90;;;;;;5056330;28;19994;-81
2021/12/26 15:25:56;;;;;;;;;;;-2.50;99.90;;;;;;5051025;28;19993;-83
2021/12/26 15:28:42;;;;;;;;;;;-2.60;99.90;;;;;;5054162;28;19917;-82